Lebanon, IN (46052)

5:04 PM EST on February 13, 2016 (GMT -0500)
St. Peter's Episcopal Church | | Change Station
CLOSE
Current Station
Personal Weather Station
Location: Lebanon, IN
Elevation: 938 ft
Nearby Weather Stations
Active Advisory: Winter Weather Advisory

Elev 938 ft 40.05 °N, 86.45 °W | Updated 38 seconds ago

Clear
Clear
18.5 °F
Feels Like 18 °F
N
1.3
Wind Variable Wind from West
Gusts 2.5 mph

Today
High -- | Low -- °F
--% Chance of Precip.
Yesterday
High -- | Low -- °F
Precip. -- in
Pressure 30.50 in
Visibility 10.0 miles
Clouds Clear
Windchill 18 °F
Dew Point -9 °F
Humidity 28%
Rainfall 0.00 in
Snow Depth Not available.
7:41 AM 6:18 PM
Waxing Crescent, 34% visible
METAR KTYQ 132155Z AUTO 34008KT 10SM CLR M08/M18 A3050 RMK AO2 T10801184
Pressure 30.50 in
Visibility 10.0 miles
Clouds Clear
Windchill 18 °F
Dew Point -9 °F
Humidity 28%
Rainfall 0.00 in
Snow Depth Not available.
7:41 AM 6:18 PM
Waxing Crescent, 34% visible
METAR KTYQ 132155Z AUTO 34008KT 10SM CLR M08/M18 A3050 RMK AO2 T10801184

10-Day Weather Forecast

Almanac

Astronomy

Feb. 13, 2016 Rise Set
Actual Time
Civil Twilight
Nautical Twilight
Astronomical Twilight
Moon
Length of Visible Light
Length of Day
Tomorrow will be .
, % of the Moon is Illuminated

Today's Extremes

State Highs State Lows

Community

WunderPhotos

Upload Photos

1,892,686 photos uploaded!

WunderBlog® & News

Nearby

Air Quality

  Air Quality AQ Index Pollutant
Not available.

Snow Depth

Station Depth Elevation

Earthquake Activity

City Distance Mag. Time & Date
Minimum magnitude displayed is 2.5.

Coastal Water Temperatures

Place Temperature

Stations

Nearby Weather Stations

Station Location Temp. Windchill Dew Point Humidity Wind Precip. Elev Updated Type
                   

Watches & Warnings

Winter Weather Advisory
Issued: 3:58 PM EST Feb. 13, 2016 – National Weather Service

... Winter Weather Advisory in effect from 8 am Sunday to midnight
EST Sunday night...

The National Weather Service in Indianapolis has issued a Winter
Weather Advisory for snow accumulations ... which is in effect
from 8 am Sunday to midnight EST Sunday night.

* Timing... snow developing by mid morning and continuing the rest
of the day and gradually diminishing Sunday night.

* Main impact... snow covered roads and poor travel conditions.
Snow accumulations of up to three inches are possible.

Precautionary/preparedness actions...

A Winter Weather Advisory for snow means that periods of snow
will cause primarily travel difficulties. Be prepared for snow
covered roads and limited visibilities... and use caution while
driving.